Time;durP1;ratioP1;P1;durP2;ratioP2;P2;SDS_P1;SDS_P2;PMS_P1;PMS_P2;Temp;Humidity;BMP_temperature;BMP_pressure;BME280_temperature;BME280_humidity;BME280_pressure;Samples;Min_cycle;Max_cycle;Signal;HPM_P1;HPM_P2
2022/06/09 00:00:56;;;;;;;2.30;2.10;;;;;;;13.35;100.00;95777.13;10370590;28;20628;-52
2022/06/09 00:05:56;;;;;;;3.38;2.08;;;;;;;13.30;100.00;95781.31;10370298;28;20204;-51
2022/06/09 00:11:00;;;;;;;2.72;2.00;;;;;;;13.11;100.00;95794.19;10370133;28;20209;-52
2022/06/09 00:16:01;;;;;;;2.50;2.10;;;;;;;13.10;100.00;95797.00;10368592;28;20194;-52
2022/06/09 00:21:01;;;;;;;3.67;1.90;;;;;;;13.11;100.00;95799.44;10369643;28;20223;-51
2022/06/09 00:26:02;;;;;;;3.88;2.28;;;;;;;13.05;100.00;95810.72;10369673;28;20617;-51
2022/06/09 00:31:02;;;;;;;4.93;2.10;;;;;;;12.96;100.00;95823.22;10369108;28;20209;-52
2022/06/09 00:36:03;;;;;;;3.97;2.08;;;;;;;12.78;100.00;95826.34;10368915;28;20683;-54
2022/06/09 00:41:03;;;;;;;2.28;2.08;;;;;;;12.74;100.00;95825.13;10354943;22;20710;-57
2022/06/09 00:46:10;;;;;;;8.05;2.40;;;;;;;12.78;100.00;95836.84;10208406;29;20196;-56
2022/06/09 00:51:39;;;;;;;4.82;2.35;;;;;;;12.85;100.00;95844.78;10208568;29;20232;-58
2022/06/09 00:56:43;;;;;;;3.15;2.22;;;;;;;13.22;100.00;95849.88;10208299;29;20687;-57
2022/06/09 01:01:43;;;;;;;4.43;2.40;;;;;;;13.49;100.00;95838.50;10207386;29;20211;-59
2022/06/09 01:06:50;;;;;;;5.40;2.38;;;;;;;13.68;100.00;95842.19;10208038;29;20228;-58
2022/06/09 01:11:52;;;;;;;4.03;2.20;;;;;;;13.88;100.00;95841.44;10206702;29;20345;-57
2022/06/09 01:17:04;;;;;;;2.97;2.05;;;;;;;13.93;100.00;95846.91;10207404;29;20603;-55
2022/06/09 01:22:29;;;;;;;6.28;2.40;;;;;;;13.78;100.00;95852.34;10207687;29;20282;-57
2022/06/09 01:27:48;;;;;;;5.57;2.33;;;;;;;13.77;100.00;95849.91;10207432;29;20251;-57
2022/06/09 01:32:55;;;;;;;4.38;2.22;;;;;;;13.72;100.00;95843.44;10207230;29;20218;-59
2022/06/09 01:37:57;;;;;;;4.95;2.03;;;;;;;13.79;100.00;95846.06;10206041;29;20691;-58
2022/06/09 01:42:58;;;;;;;5.07;2.63;;;;;;;13.69;100.00;95856.16;10207128;29;20263;-59
2022/06/09 01:48:03;;;;;;;5.18;2.25;;;;;;;13.86;100.00;95857.44;10206896;29;20183;-55
2022/06/09 01:53:08;;;;;;;3.80;2.00;;;;;;;13.85;100.00;95853.19;10205389;29;20695;-59
2022/06/09 01:58:10;;;;;;;2.70;2.35;;;;;;;13.87;100.00;95851.19;10205363;29;20323;-58
2022/06/09 02:03:17;;;;;;;4.45;2.08;;;;;;;13.80;100.00;95850.34;10206595;29;20219;-59
2022/06/09 02:08:21;;;;;;;1.92;1.75;;;;;;;13.87;100.00;95859.06;10205312;29;20659;-59
2022/06/09 02:13:25;;;;;;;4.78;1.83;;;;;;;14.03;100.00;95859.72;10205315;29;20306;-57
2022/06/09 02:18:29;;;;;;;7.07;2.22;;;;;;;13.83;100.00;95857.03;10204755;29;20310;-59
2022/06/09 02:23:30;;;;;;;5.18;2.03;;;;;;;13.96;100.00;95869.41;10206662;29;20244;-57
2022/06/09 02:28:31;;;;;;;5.13;1.85;;;;;;;13.82;100.00;95873.84;10206117;29;20640;-55
2022/06/09 02:33:31;;;;;;;5.32;1.85;;;;;;;13.87;100.00;95874.88;10206053;29;20215;-57
2022/06/09 02:38:32;;;;;;;4.28;1.92;;;;;;;13.98;100.00;95876.13;10206451;29;20228;-57
2022/06/09 02:43:32;;;;;;;4.70;2.22;;;;;;;13.81;100.00;95877.47;10205550;29;20247;-59
2022/06/09 02:48:33;;;;;;;6.40;2.20;;;;;;;13.83;100.00;95886.78;10206025;29;20192;-59
2022/06/09 02:53:33;;;;;;;6.35;2.90;;;;;;;13.64;100.00;95885.69;10205793;29;20253;-58
2022/06/09 02:58:33;;;;;;;5.43;1.92;;;;;;;13.81;100.00;95888.00;10205927;29;20216;-59
2022/06/09 03:03:34;;;;;;;2.42;1.60;;;;;;;13.93;100.00;95878.50;10220963;28;20218;-58
2022/06/09 03:08:34;;;;;;;4.57;1.90;;;;;;;14.04;100.00;95880.59;10252244;29;20194;-58
2022/06/09 03:13:35;;;;;;;5.15;2.28;;;;;;;13.96;100.00;95886.03;10252053;28;20274;-58
2022/06/09 03:18:36;;;;;;;5.25;2.38;;;;;;;13.85;100.00;95892.66;10250907;29;20335;-57
2022/06/09 03:23:36;;;;;;;4.72;1.85;;;;;;;14.00;100.00;95894.34;10251280;28;20367;-57
2022/06/09 03:28:37;;;;;;;3.78;1.65;;;;;;;13.86;100.00;95891.66;10250761;29;20650;-59
2022/06/09 03:33:38;;;;;;;4.53;1.75;;;;;;;13.97;100.00;95887.66;10250879;28;20238;-58
2022/06/09 03:38:40;;;;;;;4.13;1.85;;;;;;;13.99;100.00;95890.88;10250489;29;20227;-56
2022/06/09 03:43:41;;;;;;;3.47;1.90;;;;;;;13.99;100.00;95903.25;10250483;28;20235;-58
2022/06/09 03:48:41;;;;;;;5.00;2.10;;;;;;;13.86;100.00;95909.28;10250746;29;20573;-57
2022/06/09 03:53:41;;;;;;;7.43;2.30;;;;;;;13.70;100.00;95919.13;10250279;28;20211;-55
2022/06/09 03:58:43;;;;;;;8.02;2.30;;;;;;;13.57;100.00;95919.09;10250151;29;20694;-56
2022/06/09 04:03:44;;;;;;;6.35;2.25;;;;;;;13.51;100.00;95920.66;10249784;28;20218;-56
2022/06/09 04:08:45;;;;;;;4.35;1.92;;;;;;;13.48;100.00;95925.50;10249743;29;20267;-57
2022/06/09 04:13:46;;;;;;;3.28;2.13;;;;;;;13.80;100.00;95924.06;10249427;28;20225;-59
2022/06/09 04:18:46;;;;;;;3.00;1.90;;;;;;;13.79;100.00;95911.88;10248943;29;20227;-59
2022/06/09 04:23:47;;;;;;;4.32;2.22;;;;;;;13.77;100.00;95913.06;10249294;28;20222;-59
2022/06/09 04:28:47;;;;;;;2.90;2.00;;;;;;;13.81;100.00;95912.50;10248962;29;20250;-55
2022/06/09 04:33:48;;;;;;;8.20;2.20;;;;;;;13.63;100.00;95909.56;10248990;28;20694;-59
2022/06/09 04:38:49;;;;;;;7.65;2.58;;;;;;;13.73;100.00;95910.03;10248501;29;20322;-58
2022/06/09 04:43:49;;;;;;;2.65;2.03;;;;;;;13.96;100.00;95922.88;10248373;28;20264;-56
2022/06/09 04:48:50;;;;;;;4.82;2.00;;;;;;;14.05;100.00;95926.16;10248306;29;20237;-59
2022/06/09 04:53:50;;;;;;;5.13;1.95;;;;;;;14.28;100.00;95923.97;10248128;28;20211;-58
2022/06/09 04:58:51;;;;;;;3.30;1.88;;;;;;;14.26;100.00;95931.28;10247881;29;20302;-58
2022/06/09 05:03:52;;;;;;;4.65;2.22;;;;;;;14.08;100.00;95937.09;10247749;28;20646;-57
2022/06/09 05:08:55;;;;;;;4.93;1.90;;;;;;;14.26;100.00;95943.66;10247779;29;20194;-56
2022/06/09 05:13:55;;;;;;;3.50;1.80;;;;;;;14.32;100.00;95948.13;10247313;28;20255;-56
2022/06/09 05:18:56;;;;;;;3.40;1.80;;;;;;;14.20;100.00;95952.34;10246957;29;20310;-58
2022/06/09 05:23:56;;;;;;;2.65;2.00;;;;;;;14.51;100.00;95961.56;10246739;28;20727;-55
2022/06/09 05:28:58;;;;;;;2.60;1.55;;;;;;;14.75;100.00;95968.13;10246335;29;20585;-55
2022/06/09 05:33:59;;;;;;;3.78;1.95;;;;;;;14.93;100.00;95976.25;10247198;28;20225;-58
2022/06/09 05:49:37;;;;;;;2.45;1.45;;;;;;;13.85;100.00;95989.28;10286481;28;20199;-53
2022/06/09 05:54:37;;;;;;;2.28;1.48;;;;;;;13.93;100.00;95989.09;10286223;28;20218;-55
2022/06/09 05:59:37;;;;;;;3.28;1.83;;;;;;;14.16;100.00;95994.06;10286282;28;20236;-58
2022/06/09 06:04:38;;;;;;;2.42;1.80;;;;;;;14.19;100.00;95995.50;10285937;28;20309;-54
2022/06/09 06:09:39;;;;;;;3.53;1.30;;;;;;;14.65;100.00;96004.59;10286085;28;20205;-57
2022/06/09 06:14:41;;;;;;;2.35;1.40;;;;;;;13.88;100.00;96002.84;10285641;28;20220;-56
2022/06/09 06:19:41;;;;;;;3.05;1.55;;;;;;;14.09;100.00;96009.84;10285833;28;20218;-57
2022/06/09 06:24:41;;;;;;;2.22;1.30;;;;;;;14.39;100.00;96006.09;10285518;28;20219;-58
2022/06/09 06:29:42;;;;;;;3.15;1.67;;;;;;;14.71;100.00;96012.50;10285824;28;20205;-55
2022/06/09 06:34:42;;;;;;;2.90;1.45;;;;;;;14.95;100.00;96018.25;10285445;28;20269;-58
2022/06/09 06:39:42;;;;;;;3.72;1.95;;;;;;;14.67;100.00;96031.56;10291808;28;20237;-54
2022/06/09 06:44:43;;;;;;;2.47;1.60;;;;;;;14.79;100.00;96033.44;10282694;23;20239;-56
2022/06/09 06:49:43;;;;;;;2.03;1.80;;;;;;;14.45;100.00;96050.91;10252888;28;20283;-55
2022/06/09 06:54:44;;;;;;;5.35;1.98;;;;;;;14.44;100.00;96057.22;10245808;28;20219;-59
2022/06/09 06:59:44;;;;;;;3.20;2.03;;;;;;;14.07;100.00;96059.28;10250067;28;20223;-59
2022/06/09 07:04:45;;;;;;;3.42;2.60;;;;;;;13.89;100.00;96057.16;10250381;28;20659;-54
2022/06/09 07:09:45;;;;;;;2.30;2.10;;;;;;;13.93;100.00;96070.72;10251319;28;20960;-52
2022/06/09 07:14:46;;;;;;;4.93;2.20;;;;;;;13.77;100.00;96077.13;10250419;28;20219;-55
2022/06/09 07:19:46;;;;;;;3.33;2.00;;;;;;;14.25;100.00;96073.75;10248816;29;20315;-58
2022/06/09 07:24:47;;;;;;;2.45;2.25;;;;;;;14.26;100.00;96078.03;10250131;28;20215;-56
2022/06/09 07:29:48;;;;;;;2.25;2.05;;;;;;;14.51;100.00;96077.50;10250317;28;20223;-59
2022/06/09 07:34:49;;;;;;;2.38;2.13;;;;;;;14.31;100.00;96085.34;10247955;28;20302;-58
2022/06/09 07:39:50;;;;;;;2.63;2.00;;;;;;;14.39;100.00;96095.69;10248963;28;20290;-56
2022/06/09 07:44:50;;;;;;;2.45;2.05;;;;;;;13.94;100.00;96103.16;10247347;28;20251;-58
2022/06/09 07:49:51;;;;;;;2.00;1.80;;;;;;;13.88;100.00;96110.00;10247454;28;20273;-53
2022/06/09 07:54:51;;;;;;;4.32;2.10;;;;;;;14.12;100.00;96105.28;10247483;28;20221;-58
2022/06/09 07:59:51;;;;;;;4.25;1.80;;;;;;;14.38;100.00;96107.25;10248885;28;20223;-61
2022/06/09 08:04:52;;;;;;;7.07;2.13;;;;;;;14.28;100.00;96116.31;10247822;28;20219;-59
2022/06/09 08:09:53;;;;;;;4.63;1.90;;;;;;;13.62;100.00;96116.69;10248640;29;20298;-59
2022/06/09 08:14:53;;;;;;;5.15;2.22;;;;;;;13.86;100.00;96128.63;10249166;28;20207;-58
2022/06/09 08:19:54;;;;;;;2.60;1.92;;;;;;;13.90;100.00;96145.69;10246887;28;20306;-58
2022/06/09 08:24:55;;;;;;;1.85;1.75;;;;;;;13.79;100.00;96148.00;10223922;28;20219;-60
2022/06/09 08:29:56;;;;;;;3.50;1.90;;;;;;;13.57;100.00;96148.03;10211856;29;20663;-58
2022/06/09 08:34:56;;;;;;;4.78;1.60;;;;;;;13.44;100.00;96151.34;10221729;28;20282;-56
2022/06/09 08:39:57;;;;;;;2.58;1.80;;;;;;;13.64;100.00;96161.25;10255133;28;20223;-56
2022/06/09 08:45:02;;;;;;;1.80;1.70;;;;;;;13.33;100.00;96168.44;10250726;28;20754;-55
2022/06/09 08:50:23;;;;;;;2.80;2.20;;;;;;;13.01;100.00;96175.75;10258768;28;20187;-56
2022/06/09 08:55:28;;;;;;;3.17;2.67;;;;;;;12.97;100.00;96181.56;10285613;28;20219;-56
2022/06/09 09:00:34;;;;;;;2.65;2.45;;;;;;;13.18;100.00;96192.16;10246896;28;20254;-57
2022/06/09 09:05:49;;;;;;;2.47;2.28;;;;;;;13.29;100.00;96196.13;10260646;28;20728;-58
2022/06/09 09:11:14;;;;;;;3.55;2.95;;;;;;;13.44;100.00;96203.97;10244743;28;20233;-59
2022/06/09 09:16:42;;;;;;;3.33;3.03;;;;;;;13.26;100.00;96208.81;10246120;28;20191;-59
2022/06/09 09:21:57;;;;;;;3.15;2.88;;;;;;;13.12;100.00;96216.53;10245761;28;20222;-58
2022/06/09 09:27:08;;;;;;;4.35;3.97;;;;;;;13.18;100.00;96215.84;10247921;28;20222;-58
2022/06/09 09:32:16;;;;;;;4.47;3.67;;;;;;;13.31;100.00;96223.03;10248960;28;20223;-56
2022/06/09 09:37:46;;;;;;;5.07;4.15;;;;;;;13.00;100.00;96220.66;10244458;29;20257;-51
2022/06/09 09:42:48;;;;;;;5.03;4.63;;;;;;;12.97;100.00;96223.66;10233005;28;20239;-58
2022/06/09 09:47:51;;;;;;;7.28;5.05;;;;;;;13.22;100.00;96229.41;10244985;28;20198;-53
2022/06/09 09:53:21;;;;;;;6.10;5.47;;;;;;;13.27;100.00;96234.13;10244885;28;20258;-59
2022/06/09 09:58:23;;;;;;;6.65;5.88;;;;;;;13.40;100.00;96244.84;10244910;28;20219;-59
2022/06/09 10:08:54;;;;;;;7.30;6.40;;;;;;;13.36;100.00;96244.38;10243933;29;20597;-54
2022/06/09 10:13:58;;;;;;;8.70;7.20;;;;;;;13.60;100.00;96252.09;10249452;28;20219;-56
2022/06/09 10:19:02;;;;;;;7.00;6.30;;;;;;;13.90;100.00;96263.34;10251450;29;20222;-58
2022/06/09 10:24:05;;;;;;;7.80;7.05;;;;;;;13.98;100.00;96260.59;10251594;28;20213;-59
2022/06/09 10:29:13;;;;;;;8.10;6.72;;;;;;;14.05;100.00;96258.81;10250754;29;20631;-59
2022/06/09 10:34:26;;;;;;;7.68;6.97;;;;;;;14.16;100.00;96256.69;10252219;28;20219;-56
2022/06/09 10:39:40;;;;;;;8.15;7.28;;;;;;;14.38;100.00;96273.25;10251590;28;20245;-55
2022/06/09 10:44:48;;;;;;;8.00;7.30;;;;;;;14.41;100.00;96275.50;10249039;28;20326;-58
2022/06/09 10:55:29;;;;;;;9.93;7.45;;;;;;;14.59;100.00;96277.66;10254010;28;20207;-58
2022/06/09 11:00:36;;;;;;;9.10;8.20;;;;;;;14.79;100.00;96278.66;10250903;28;20223;-53
2022/06/09 11:05:39;;;;;;;8.50;7.57;;;;;;;14.84;100.00;96282.53;10251017;28;20646;-54
2022/06/09 11:11:09;;;;;;;10.85;8.95;;;;;;;13.82;100.00;96297.72;10251286;28;20230;-59
2022/06/09 11:16:16;;;;;;;10.63;9.52;;;;;;;13.87;100.00;96301.41;10249716;28;20270;-56
2022/06/09 11:21:25;;;;;;;11.85;10.60;;;;;;;14.51;100.00;96298.91;10250344;28;20259;-58
2022/06/09 11:26:29;;;;;;;11.13;9.57;;;;;;;14.62;100.00;96293.97;10248629;28;20291;-58
2022/06/09 11:32:05;;;;;;;11.07;9.98;;;;;;;14.80;100.00;96290.00;10249855;28;20706;-59
2022/06/09 11:37:24;;;;;;;10.02;9.13;;;;;;;15.20;100.00;96287.59;10216223;28;20234;-58
2022/06/09 11:42:38;;;;;;;10.43;7.95;;;;;;;15.65;100.00;96290.59;10250019;28;20253;-59
2022/06/09 11:47:38;;;;;;;7.85;7.10;;;;;;;16.12;100.00;96290.72;10248896;28;20191;-56
2022/06/09 11:52:47;;;;;;;7.40;5.88;;;;;;;16.62;100.00;96292.97;10248764;28;20860;-55
2022/06/09 11:57:49;;;;;;;6.00;5.30;;;;;;;16.56;100.00;96285.84;10249000;28;20314;-53
2022/06/09 12:03:11;;;;;;;8.95;5.57;;;;;;;16.79;100.00;96292.53;10249007;28;20298;-57
2022/06/09 12:08:33;;;;;;;6.68;4.85;;;;;;;16.76;100.00;96286.63;10248758;28;20294;-54
2022/06/09 12:13:54;;;;;;;5.50;5.00;;;;;;;16.21;100.00;96304.56;10247873;28;20222;-55
2022/06/09 12:19:10;;;;;;;8.18;5.55;;;;;;;16.70;100.00;96300.69;10244487;28;20620;-59
2022/06/09 12:24:13;;;;;;;6.32;5.15;;;;;;;16.91;100.00;96301.50;10243940;28;20241;-54
2022/06/09 12:29:34;;;;;;;7.85;5.20;;;;;;;16.81;100.00;96309.81;10242457;28;20242;-57
2022/06/09 12:34:43;;;;;;;10.68;5.25;;;;;;;17.00;100.00;96304.72;10244823;28;20622;-53
2022/06/09 12:39:47;;;;;;;4.90;4.45;;;;;;;17.06;100.00;96311.84;10246674;28;20215;-56
2022/06/09 12:44:59;;;;;;;7.55;5.20;;;;;;;17.43;100.00;96309.50;10238250;28;20227;-54
2022/06/09 12:50:20;;;;;;;9.38;6.00;;;;;;;17.44;100.00;96308.47;10262909;28;20997;-53
2022/06/09 12:55:29;;;;;;;12.32;5.60;;;;;;;17.15;100.00;96329.16;10263103;28;20215;-59
2022/06/09 13:00:38;;;;;;;6.30;5.25;;;;;;;17.64;100.00;96322.44;10244306;28;20301;-61
2022/06/09 13:05:39;;;;;;;9.32;6.72;;;;;;;16.79;100.00;96343.59;10261119;28;20773;-59
2022/06/09 13:10:43;;;;;;;9.82;7.05;;;;;;;16.93;100.00;96349.72;10246896;28;20215;-60
2022/06/09 13:15:48;;;;;;;10.43;6.40;;;;;;;17.33;100.00;96343.53;10245831;28;20686;-61
2022/06/09 13:21:11;;;;;;;9.85;6.72;;;;;;;17.57;100.00;96336.75;10245098;28;20599;-61
2022/06/09 13:26:14;;;;;;;8.25;5.85;;;;;;;17.39;100.00;96346.16;10247823;28;20218;-60
2022/06/09 13:31:24;;;;;;;7.82;5.75;;;;;;;17.59;100.00;96347.94;10256785;28;20207;-59
2022/06/09 13:36:37;;;;;;;8.02;5.50;;;;;;;17.43;100.00;96352.69;10267780;28;20675;-60
2022/06/09 13:41:38;;;;;;;10.07;5.70;;;;;;;17.30;100.00;96352.72;10261968;28;20207;-59
2022/06/09 13:47:16;;;;;;;6.22;4.80;;;;;;;18.34;97.71;96342.84;10264749;28;20273;-60
2022/06/09 13:52:31;;;;;;;7.20;5.10;;;;;;;17.43;100.00;96355.31;10260151;28;20330;-55
2022/06/09 13:57:35;;;;;;;7.32;5.25;;;;;;;17.16;100.00;96370.47;10264363;28;20228;-55
2022/06/09 14:02:53;;;;;;;10.07;4.63;;;;;;;17.75;100.00;96350.13;10245299;28;20702;-60
2022/06/09 14:07:53;;;;;;;6.93;4.13;;;;;;;19.60;87.51;96305.53;10244396;28;20379;-58
2022/06/09 14:12:54;;;;;;;6.32;3.47;;;;;;;20.67;80.64;96288.06;10244971;28;20834;-58
2022/06/09 14:17:55;;;;;;;3.65;3.28;;;;;;;21.38;77.30;96268.53;10244437;28;20249;-54
2022/06/09 14:22:56;;;;;;;6.55;3.58;;;;;;;20.95;76.96;96285.72;10243373;28;20222;-59
2022/06/09 14:27:57;;;;;;;4.88;3.70;;;;;;;22.57;68.86;96200.19;10243037;28;20188;-60
2022/06/09 14:32:57;;;;;;;3.97;2.38;;;;;;;24.77;62.27;96150.97;10243145;28;20211;-59
2022/06/09 14:37:58;;;;;;;4.90;2.85;;;;;;;25.27;58.61;96112.78;10244299;28;20219;-60
2022/06/09 14:42:59;;;;;;;4.85;3.30;;;;;;;23.53;61.41;96160.72;10244219;28;20358;-59
2022/06/09 14:47:59;;;;;;;4.93;3.88;;;;;;;22.62;64.96;96210.13;10244054;28;20195;-62
2022/06/09 14:52:59;;;;;;;4.97;3.58;;;;;;;24.93;60.21;96166.00;10244442;28;20207;-59
2022/06/09 14:58:00;;;;;;;4.40;2.47;;;;;;;24.57;56.58;96099.69;10245878;28;20227;-62
2022/06/09 15:03:01;;;;;;;4.82;2.70;;;;;;;25.42;55.30;96105.84;10249943;28;20462;-58
2022/06/09 15:08:01;;;;;;;4.13;2.55;;;;;;;23.87;56.53;96112.38;10250571;28;20188;-60
2022/06/09 15:13:02;;;;;;;5.07;2.60;;;;;;;23.88;59.46;96182.75;10250503;28;20229;-62
2022/06/09 15:18:06;;;;;;;7.38;3.40;;;;;;;22.96;60.17;96172.66;10250717;28;20250;-61
2022/06/09 15:23:07;;;;;;;5.38;3.28;;;;;;;22.32;64.60;96267.31;10250370;28;20290;-62
2022/06/09 15:28:08;;;;;;;4.93;2.80;;;;;;;22.47;63.60;96258.75;10249915;28;20196;-61
2022/06/09 15:33:09;;;;;;;3.58;2.92;;;;;;;22.97;63.98;96284.59;10248863;28;20225;-60
2022/06/09 15:38:10;;;;;;;6.78;3.05;;;;;;;25.78;55.98;96178.34;10248918;28;20737;-60
2022/06/09 15:43:11;;;;;;;5.53;3.15;;;;;;;24.16;58.61;96211.06;10249961;28;20677;-60
2022/06/09 15:48:17;;;;;;;4.07;2.75;;;;;;;24.95;57.29;96209.44;10249414;28;20199;-61
2022/06/09 15:53:17;;;;;;;4.85;2.08;;;;;;;25.71;53.40;96142.91;10249026;28;20215;-62
2022/06/09 15:58:19;;;;;;;2.60;2.33;;;;;;;23.84;58.02;96204.66;10249053;28;20318;-62
2022/06/09 16:03:20;;;;;;;3.97;2.92;;;;;;;22.26;61.34;96255.72;10248797;28;20642;-59
2022/06/09 16:08:22;;;;;;;5.30;2.60;;;;;;;21.06;64.48;96300.06;10247255;28;20295;-60
2022/06/09 16:13:23;;;;;;;4.35;2.80;;;;;;;20.05;68.47;96362.84;10248429;28;20215;-61
2022/06/09 16:18:24;;;;;;;6.15;2.88;;;;;;;19.68;70.85;96397.44;10247739;28;20223;-60
2022/06/09 16:23:26;;;;;;;4.75;3.00;;;;;;;19.44;72.87;96423.03;10246739;28;20301;-60
2022/06/09 16:28:38;;;;;;;3.92;2.88;;;;;;;19.59;72.75;96407.53;10256432;28;20238;-59
2022/06/09 16:33:48;;;;;;;3.95;3.13;;;;;;;19.55;73.23;96406.34;10261413;28;20762;-58
2022/06/09 16:39:00;;;;;;;4.53;3.28;;;;;;;19.60;72.62;96395.91;10256198;28;20270;-60
2022/06/09 16:44:04;;;;;;;4.53;3.03;;;;;;;19.09;74.64;96428.06;10250571;28;20245;-61
2022/06/09 16:49:04;;;;;;;5.60;3.63;;;;;;;18.43;77.18;96448.72;10249037;28;20266;-61
2022/06/09 16:54:05;;;;;;;5.47;3.97;;;;;;;18.36;79.05;96449.56;10248311;28;20218;-60
2022/06/09 16:59:05;;;;;;;9.35;3.90;;;;;;;18.37;79.72;96460.97;10248504;28;20234;-61
2022/06/09 17:04:06;;;;;;;8.60;3.58;;;;;;;18.31;80.34;96448.56;10247369;28;20646;-58
2022/06/09 17:09:06;;;;;;;6.43;4.03;;;;;;;18.05;83.32;96479.47;10248364;28;20567;-61
2022/06/09 17:14:11;;;;;;;8.18;4.03;;;;;;;17.35;84.52;96474.72;10248438;28;20214;-57
2022/06/09 17:30:52;;;;;;;7.10;4.03;;;;;;;17.61;86.24;96499.50;10295999;28;20208;-61
2022/06/09 17:35:55;;;;;;;5.75;3.85;;;;;;;17.55;86.96;96495.03;10285650;28;20214;-58
2022/06/09 17:40:56;;;;;;;8.23;3.92;;;;;;;17.44;88.83;96507.06;10267891;28;20306;-60
2022/06/09 17:46:01;;;;;;;7.88;4.07;;;;;;;17.24;92.14;96523.81;10264884;28;20309;-60
2022/06/09 17:57:48;;;;;;;6.10;4.78;;;;;;;17.22;92.41;96517.06;10268175;28;20211;-59
2022/06/09 18:03:29;;;;;;;5.63;4.20;;;;;;;17.05;94.50;96528.06;10268647;28;20211;-60
2022/06/09 18:08:33;;;;;;;6.70;4.35;;;;;;;17.07;94.84;96541.88;10266876;28;20700;-56
2022/06/09 18:13:34;;;;;;;6.20;4.03;;;;;;;17.05;95.75;96554.53;10245869;28;20222;-57
2022/06/09 18:18:35;;;;;;;11.88;4.95;;;;;;;17.06;94.56;96547.38;10245682;28;20218;-53
2022/06/09 18:23:37;;;;;;;9.80;5.57;;;;;;;17.02;96.08;96554.13;10245246;28;20725;-55
2022/06/09 18:28:37;;;;;;;9.05;4.43;;;;;;;16.85;97.33;96569.53;10245568;28;20195;-55
2022/06/09 18:33:37;;;;;;;7.15;4.68;;;;;;;16.77;96.93;96571.31;10248638;28;20218;-54
2022/06/09 18:38:38;;;;;;;7.75;5.07;;;;;;;16.74;97.74;96574.38;10252799;28;20314;-53
2022/06/09 18:43:38;;;;;;;7.55;4.07;;;;;;;16.55;100.00;96591.81;10253131;28;20246;-52
2022/06/09 18:48:39;;;;;;;7.07;4.18;;;;;;;16.43;100.00;96593.34;10252690;29;20192;-53
2022/06/09 18:53:40;;;;;;;5.05;4.43;;;;;;;16.12;100.00;96597.25;10252549;28;20294;-52
2022/06/09 18:58:41;;;;;;;7.72;5.70;;;;;;;16.04;100.00;96600.06;10252048;28;20314;-58
2022/06/09 19:03:41;;;;;;;11.07;5.75;;;;;;;15.76;100.00;96615.88;10272706;23;20613;-60
2022/06/09 19:08:44;;;;;;;10.77;5.55;;;;;;;15.94;100.00;96621.56;10293528;28;20202;-55
2022/06/09 19:13:47;;;;;;;11.50;5.80;;;;;;;15.28;100.00;96616.50;10294641;28;20241;-55
2022/06/09 19:18:48;;;;;;;9.32;6.25;;;;;;;15.20;100.00;96625.34;10294584;28;20284;-57
2022/06/09 19:23:49;;;;;;;10.50;6.68;;;;;;;15.41;100.00;96627.19;10294602;28;20280;-55
2022/06/09 19:28:52;;;;;;;15.73;7.07;;;;;;;15.25;100.00;96648.53;10294316;28;20641;-58
2022/06/09 19:33:53;;;;;;;6.82;5.85;;;;;;;15.20;100.00;96649.09;10294046;28;20214;-58
2022/06/09 19:38:53;;;;;;;10.13;6.47;;;;;;;15.29;100.00;96663.00;10293556;28;20227;-60
2022/06/09 19:43:54;;;;;;;10.32;6.80;;;;;;;15.21;100.00;96666.59;10292806;28;20215;-59
2022/06/09 19:48:57;;;;;;;8.38;7.13;;;;;;;15.22;100.00;96673.50;10293555;28;20282;-60
2022/06/09 19:53:59;;;;;;;11.10;8.00;;;;;;;15.17;100.00;96683.78;10293201;28;20234;-58
2022/06/09 19:59:00;;;;;;;10.23;8.25;;;;;;;15.10;100.00;96690.78;10292633;28;20218;-53
2022/06/09 20:04:00;;;;;;;11.63;8.00;;;;;;;15.01;100.00;96711.22;10292602;28;20238;-59
2022/06/09 20:09:01;;;;;;;14.35;8.75;;;;;;;14.91;100.00;96702.75;10292737;28;20286;-57
2022/06/09 20:14:01;;;;;;;21.48;8.65;;;;;;;14.87;100.00;96712.88;10292534;28;20232;-57
2022/06/09 20:19:01;;;;;;;12.15;9.15;;;;;;;14.71;100.00;96713.88;10291609;28;20219;-54
2022/06/09 20:24:02;;;;;;;12.07;8.05;;;;;;;14.70;100.00;96714.03;10290434;28;20214;-57
2022/06/09 20:29:02;;;;;;;11.20;8.82;;;;;;;14.73;100.00;96718.97;10290713;28;20265;-57
2022/06/09 20:34:03;;;;;;;16.73;8.68;;;;;;;14.65;100.00;96716.41;10288637;28;20217;-57
2022/06/09 20:39:04;;;;;;;18.92;10.70;;;;;;;14.50;100.00;96722.50;10291513;28;20230;-56
2022/06/09 20:44:05;;;;;;;17.08;9.40;;;;;;;14.35;100.00;96734.81;10291438;28;20890;-51
2022/06/09 20:49:17;;;;;;;9.75;7.25;;;;;;;14.03;100.00;96739.41;10291344;28;20195;-57
2022/06/09 20:54:17;;;;;;;9.75;6.72;;;;;;;13.97;100.00;96737.47;10290838;28;20297;-57
2022/06/09 20:59:18;;;;;;;15.35;7.07;;;;;;;13.70;100.00;96739.63;10290686;28;20308;-54
2022/06/09 21:04:18;;;;;;;12.30;7.05;;;;;;;13.85;100.00;96743.13;10290499;28;20328;-57
2022/06/09 21:09:20;;;;;;;10.93;7.07;;;;;;;13.88;100.00;96739.34;10290879;28;20186;-55
2022/06/09 21:19:39;;;;;;;13.70;7.72;;;;;;;13.74;100.00;96754.09;10290604;28;20222;-55
2022/06/09 21:24:39;;;;;;;15.90;8.45;;;;;;;13.70;100.00;96750.97;10290362;28;20593;-55
2022/06/09 21:29:40;;;;;;;12.05;8.02;;;;;;;13.66;100.00;96760.25;10290107;28;20205;-55
2022/06/09 21:34:40;;;;;;;9.48;7.40;;;;;;;13.66;100.00;96759.41;10290053;28;20210;-56
2022/06/09 21:39:40;;;;;;;10.70;7.85;;;;;;;13.59;100.00;96769.00;10286835;28;20301;-55
2022/06/09 21:44:41;;;;;;;14.48;8.90;;;;;;;13.56;100.00;96767.53;10289468;28;20218;-59
2022/06/09 21:49:41;;;;;;;12.00;8.30;;;;;;;13.65;100.00;96768.31;10289968;28;20191;-55
2022/06/09 21:54:42;;;;;;;11.30;9.13;;;;;;;13.64;100.00;96767.47;10289107;28;20214;-58
2022/06/09 21:59:42;;;;;;;11.07;8.85;;;;;;;13.55;100.00;96758.81;10289073;28;20226;-59
2022/06/09 22:04:43;;;;;;;12.00;7.85;;;;;;;13.58;100.00;96757.63;10288536;28;20322;-58
2022/06/09 22:09:43;;;;;;;14.73;8.02;;;;;;;13.62;100.00;96761.56;10294199;28;20194;-58
2022/06/09 22:14:43;;;;;;;12.23;8.95;;;;;;;13.88;100.00;96769.13;10297303;28;20252;-55
2022/06/09 22:19:44;;;;;;;19.02;8.43;;;;;;;14.03;100.00;96771.00;10296757;28;20233;-59
2022/06/09 22:24:44;;;;;;;10.63;8.18;;;;;;;14.20;100.00;96774.31;10296945;28;20242;-57
2022/06/09 22:29:44;;;;;;;12.00;8.52;;;;;;;14.23;100.00;96780.06;10296545;28;20218;-55
2022/06/09 22:34:45;;;;;;;12.98;8.90;;;;;;;14.35;100.00;96790.16;10296378;28;20222;-57
2022/06/09 22:39:45;;;;;;;11.10;7.15;;;;;;;14.36;100.00;96797.88;10296467;28;20337;-59
2022/06/09 22:44:45;;;;;;;11.52;7.35;;;;;;;14.26;100.00;96803.41;10295959;28;20229;-57
2022/06/09 22:49:46;;;;;;;10.57;7.18;;;;;;;14.20;100.00;96803.31;10296208;28;20186;-57
2022/06/09 22:56:08;;;;;;;12.00;7.25;;;;;;;14.19;100.00;96806.94;10295657;28;20357;-59
2022/06/09 23:00:28;;;;;;;10.13;7.05;;;;;;;14.16;100.00;96808.09;10295079;28;20258;-59
2022/06/09 23:05:29;;;;;;;9.23;6.78;;;;;;;14.05;100.00;96803.25;10294747;28;20296;-59
2022/06/09 23:10:30;;;;;;;12.23;6.85;;;;;;;13.90;100.00;96822.47;10294961;28;20665;-59
2022/06/09 23:15:31;;;;;;;10.25;6.88;;;;;;;14.04;100.00;96830.56;10294827;28;20210;-59
2022/06/09 23:20:34;;;;;;;11.18;7.03;;;;;;;13.87;100.00;96835.97;10293486;28;20218;-59
2022/06/09 23:25:35;;;;;;;11.45;6.60;;;;;;;13.94;100.00;96833.44;10294667;28;20315;-59
2022/06/09 23:30:35;;;;;;;9.90;6.03;;;;;;;14.04;100.00;96839.31;10294222;28;20687;-59
2022/06/09 23:35:36;;;;;;;7.18;5.97;;;;;;;13.94;100.00;96833.44;10294149;28;20236;-59
2022/06/09 23:40:40;;;;;;;9.25;5.90;;;;;;;14.02;100.00;96845.75;10292831;28;20226;-56
2022/06/09 23:45:46;;;;;;;13.25;6.78;;;;;;;14.08;100.00;96850.31;10293722;28;20339;-59
2022/06/09 23:50:50;;;;;;;7.78;5.40;;;;;;;14.08;100.00;96868.75;10293755;28;20187;-59
2022/06/09 23:55:52;;;;;;;6.45;5.63;;;;;;;13.87;100.00;96872.84;10293463;28;20221;-59
